Time;durP1;ratioP1;P1;durP2;ratioP2;P2;SDS_P1;SDS_P2;PMS_P1;PMS_P2;Temp;Humidity;BMP_temperature;BMP_pressure;BME280_temperature;BME280_humidity;BME280_pressure;Samples;Min_cycle;Max_cycle;Signal;HPM_P1;HPM_P2
2023/03/06 00:00:53;;;;;;;40.73;18.35;;;;;;;-4.93;86.14;99239.47;1772474;80;25583;-65
2023/03/06 00:03:21;;;;;;;41.45;18.40;;;;;;;-4.93;86.06;99242.11;1773011;79;25584;-65
2023/03/06 00:05:48;;;;;;;49.10;21.27;;;;;;;-4.95;86.18;99237.59;1772523;80;25582;-65
2023/03/06 00:08:15;;;;;;;49.10;19.87;;;;;;;-4.99;86.23;99237.75;1772914;79;27511;-65
2023/03/06 00:10:42;;;;;;;40.10;20.30;;;;;;;-5.02;86.07;99236.39;1772996;80;25636;-65
2023/03/06 00:13:14;;;;;;;53.13;20.62;;;;;;;-5.04;86.07;99235.80;1773207;80;25375;-65
2023/03/06 00:15:41;;;;;;;47.95;19.67;;;;;;;-5.05;86.12;99240.80;1773416;80;25897;-65
2023/03/06 00:18:08;;;;;;;41.58;18.95;;;;;;;-5.07;86.31;99234.97;1773002;80;25568;-65
2023/03/06 00:20:39;;;;;;;46.53;19.23;;;;;;;-5.11;86.08;99233.81;1774213;80;29585;-65
2023/03/06 00:23:08;;;;;;;40.90;18.25;;;;;;;-5.12;86.03;99234.86;1770807;80;25747;-65
2023/03/06 00:25:37;;;;;;;45.28;19.00;;;;;;;-5.15;85.83;99240.06;1776126;80;25616;-65
2023/03/06 00:28:05;;;;;;;42.25;19.50;;;;;;;-5.17;85.73;99240.03;1779009;80;25452;-65
2023/03/06 00:30:32;;;;;;;43.70;18.82;;;;;;;-5.21;85.62;99236.23;1778927;80;25357;-65
2023/03/06 00:32:58;;;;;;;46.35;20.45;;;;;;;-5.23;85.53;99247.53;1778892;80;28176;-64
2023/03/06 00:35:24;;;;;;;51.80;20.88;;;;;;;-5.28;85.52;99233.71;1778808;80;25611;-65
2023/03/06 00:37:51;;;;;;;43.00;18.48;;;;;;;-5.31;85.39;99247.34;1778902;80;25372;-65
2023/03/06 00:40:20;;;;;;;48.05;23.27;;;;;;;-5.35;85.22;99244.90;1778867;80;25538;-64
2023/03/06 00:42:48;;;;;;;54.42;25.32;;;;;;;-5.36;85.23;99246.74;1779052;79;25374;-64
2023/03/06 00:45:15;;;;;;;53.60;26.23;;;;;;;-5.39;85.41;99246.41;1778889;79;28189;-64
2023/03/06 00:47:42;;;;;;;56.55;24.43;;;;;;;-5.41;85.42;99240.53;1767955;80;25382;-64
2023/03/06 00:50:11;;;;;;;53.02;25.10;;;;;;;-5.44;85.35;99240.49;1778962;79;25617;-64
2023/03/06 00:52:38;;;;;;;45.67;23.18;;;;;;;-5.47;85.40;99236.99;1768174;80;25727;-64
2023/03/06 00:55:07;;;;;;;52.23;25.17;;;;;;;-5.50;85.40;99242.22;1778916;80;25558;-64
2023/03/06 00:57:33;;;;;;;57.93;25.72;;;;;;;-5.51;85.39;99237.97;1768198;80;27339;-63
2023/03/06 01:00:04;;;;;;;53.17;25.20;;;;;;;-5.53;85.34;99240.56;1778762;80;25570;-64
2023/03/06 01:02:31;;;;;;;48.80;24.82;;;;;;;-5.56;85.29;99238.37;1777357;80;25400;-64
2023/03/06 01:04:59;;;;;;;54.23;24.65;;;;;;;-5.57;85.20;99242.03;1778813;80;25523;-64
2023/03/06 01:07:27;;;;;;;54.83;24.30;;;;;;;-5.60;85.13;99237.21;1778907;80;25615;-63
2023/03/06 01:09:55;;;;;;;46.00;23.00;;;;;;;-5.62;85.21;99238.75;1778856;79;27508;-63
2023/03/06 01:12:21;;;;;;;51.80;24.32;;;;;;;-5.64;85.28;99232.92;1778749;80;25701;-63
2023/03/06 01:14:49;;;;;;;48.78;23.65;;;;;;;-5.68;85.33;99230.47;1778850;80;25575;-63
2023/03/06 01:17:16;;;;;;;54.73;24.90;;;;;;;-5.69;85.22;99228.84;1778787;80;25369;-63
2023/03/06 01:19:43;;;;;;;53.92;25.57;;;;;;;-5.71;85.17;99227.76;1777044;80;25401;-63
2023/03/06 01:22:09;;;;;;;52.53;23.95;;;;;;;-5.74;85.10;99224.25;1778800;79;27528;-63
2023/03/06 01:24:36;;;;;;;51.75;24.90;;;;;;;-5.76;85.14;99224.21;1778033;80;25575;-62
2023/03/06 01:27:03;;;;;;;53.52;23.67;;;;;;;-5.77;85.14;99222.59;1762505;80;25646;-62
2023/03/06 01:29:31;;;;;;;51.05;24.00;;;;;;;-5.78;85.16;99221.01;1771793;80;25554;-63
2023/03/06 01:31:58;;;;;;;52.27;23.62;;;;;;;-5.82;85.11;99222.77;1762620;80;25581;-62
2023/03/06 01:34:25;;;;;;;50.05;23.62;;;;;;;-5.85;85.02;99221.91;1771697;80;28007;-61
2023/03/06 01:36:52;;;;;;;51.92;23.42;;;;;;;-5.86;84.74;99222.92;1762518;80;25725;-62
2023/03/06 01:39:18;;;;;;;48.17;23.35;;;;;;;-5.87;84.94;99225.81;1772472;80;25377;-61
2023/03/06 01:41:47;;;;;;;49.23;22.15;;;;;;;-5.90;84.81;99223.63;1772443;80;25567;-62
2023/03/06 01:44:13;;;;;;;49.77;23.27;;;;;;;-5.92;84.99;99223.05;1772313;80;25551;-62
2023/03/06 01:46:44;;;;;;;50.60;23.90;;;;;;;-5.95;84.91;99216.39;1772284;80;28199;-61
2023/03/06 01:49:19;;;;;;;48.52;23.62;;;;;;;-5.95;84.95;99218.23;1771722;80;26052;-62
2023/03/06 01:52:06;;;;;;;45.33;23.47;;;;;;;-5.98;84.98;99218.19;1771834;80;25420;-62
2023/03/06 01:54:44;;;;;;;52.17;24.82;;;;;;;-5.99;85.11;99214.47;1771479;80;25624;-61
2023/03/06 01:57:19;;;;;;;53.42;25.40;;;;;;;-6.01;85.08;99215.52;1772463;80;25368;-62
2023/03/06 01:59:51;;;;;;;51.65;24.25;;;;;;;-6.04;84.97;99209.37;1771433;80;28278;-62
2023/03/06 02:02:20;;;;;;;46.50;23.75;;;;;;;-6.06;84.96;99210.13;1771810;80;25524;-61
2023/03/06 02:04:48;;;;;;;52.43;25.08;;;;;;;-6.09;84.83;99210.57;1771861;80;25600;-63
2023/03/06 02:07:18;;;;;;;49.70;24.40;;;;;;;-6.10;84.97;99219.48;1772469;80;25841;-61
2023/03/06 02:09:45;;;;;;;52.38;24.63;;;;;;;-6.12;85.10;99216.28;1763097;80;25643;-61
2023/03/06 02:12:17;;;;;;;48.73;25.20;;;;;;;-6.13;85.36;99212.06;1763418;80;27660;-60
2023/03/06 02:14:46;;;;;;;47.48;23.92;;;;;;;-6.12;85.47;99220.75;1772129;80;25548;-62
2023/03/06 02:17:18;;;;;;;51.58;23.02;;;;;;;-6.13;85.23;99219.96;1772390;80;25645;-61
2023/03/06 02:20:08;;;;;;;46.77;22.62;;;;;;;-6.15;85.28;99219.36;1771785;80;25375;-62
2023/03/06 02:22:52;;;;;;;44.83;22.77;;;;;;;-6.16;85.13;99217.77;1772113;80;25649;-61
2023/03/06 02:25:39;;;;;;;50.65;24.27;;;;;;;-6.20;85.01;99214.80;1771952;80;27479;-61
2023/03/06 02:28:09;;;;;;;51.95;24.40;;;;;;;-6.21;85.24;99215.02;1772714;80;25639;-61
2023/03/06 02:30:38;;;;;;;48.02;24.07;;;;;;;-6.22;85.48;99216.83;1773065;80;25546;-61
2023/03/06 02:33:05;;;;;;;55.08;25.95;;;;;;;-6.22;85.51;99217.34;1773559;80;26047;-61
2023/03/06 02:35:35;;;;;;;51.00;24.07;;;;;;;-6.22;85.53;99219.98;1772050;80;25429;-61
2023/03/06 02:38:08;;;;;;;51.65;23.27;;;;;;;-6.24;85.80;99216.25;1760226;81;28078;-60
2023/03/06 02:40:35;;;;;;;56.45;25.05;;;;;;;-6.22;85.85;99216.03;1771706;80;25741;-60
2023/03/06 02:43:02;;;;;;;53.48;26.45;;;;;;;-6.22;86.09;99212.08;1773885;80;25557;-60
2023/03/06 02:45:55;;;;;;;53.65;25.17;;;;;;;-6.22;86.02;99215.50;1772353;79;25870;-61
2023/03/06 02:48:21;;;;;;;53.17;24.63;;;;;;;-6.22;85.99;99208.92;1716902;83;25410;-61
2023/03/06 02:50:48;;;;;;;47.10;23.63;;;;;;;-6.23;85.82;99212.60;1693173;83;27311;-61
2023/03/06 02:53:18;;;;;;;50.08;24.32;;;;;;;-6.24;85.71;99210.98;1716701;83;25684;-61
2023/03/06 02:55:46;;;;;;;51.50;24.37;;;;;;;-6.25;85.90;99210.72;1716528;83;25521;-61
2023/03/06 02:58:14;;;;;;;53.60;25.30;;;;;;;-6.25;85.80;99215.16;1717071;83;25510;-61
2023/03/06 03:00:41;;;;;;;55.17;25.50;;;;;;;-6.27;85.75;99214.59;1693294;83;25638;-61
2023/03/06 03:03:08;;;;;;;55.43;25.52;;;;;;;-6.28;85.78;99214.28;1717583;82;27487;-62
2023/03/06 03:05:35;;;;;;;53.23;24.50;;;;;;;-6.29;85.79;99210.06;1717490;83;25567;-62
2023/03/06 03:08:01;;;;;;;51.68;24.30;;;;;;;-6.30;85.59;99213.71;1717224;83;25555;-60
2023/03/06 03:10:28;;;;;;;52.80;24.12;;;;;;;-6.33;85.70;99214.98;1716872;83;25969;-59
2023/03/06 03:12:58;;;;;;;56.33;25.27;;;;;;;-6.34;85.64;99209.41;1717521;83;25507;-60
2023/03/06 03:15:25;;;;;;;50.88;24.12;;;;;;;-6.35;85.80;99208.32;1693357;83;27457;-60
2023/03/06 03:17:52;;;;;;;54.65;26.12;;;;;;;-6.35;85.71;99213.09;1717412;83;25662;-60
2023/03/06 03:20:22;;;;;;;48.60;24.12;;;;;;;-6.35;85.65;99207.83;1717691;83;25587;-60
2023/03/06 03:22:52;;;;;;;59.63;23.80;;;;;;;-6.35;85.55;99208.32;1717810;83;25616;-61
2023/03/06 03:25:23;;;;;;;52.38;24.82;;;;;;;-6.37;85.65;99205.12;1715551;83;25622;-60
2023/03/06 03:27:51;;;;;;;55.83;24.87;;;;;;;-6.36;85.82;99213.31;1692814;83;27547;-60
2023/03/06 03:30:18;;;;;;;52.20;24.85;;;;;;;-6.36;85.92;99200.16;1712953;83;25573;-60
2023/03/06 03:32:44;;;;;;;49.60;24.18;;;;;;;-6.37;85.83;99206.44;1693094;83;25471;-60
2023/03/06 03:35:11;;;;;;;45.75;23.73;;;;;;;-6.36;85.87;99208.05;1713267;83;25618;-60
2023/03/06 03:37:38;;;;;;;48.38;23.75;;;;;;;-6.37;85.87;99207.22;1713121;83;25377;-61
2023/03/06 03:40:09;;;;;;;52.23;25.60;;;;;;;-6.36;85.97;99208.05;1712904;83;27551;-59
2023/03/06 03:42:35;;;;;;;49.42;24.12;;;;;;;-6.39;85.68;99207.97;1712490;83;25734;-60
2023/03/06 03:45:04;;;;;;;58.25;25.48;;;;;;;-6.40;85.70;99210.33;1712773;83;25541;-60
2023/03/06 03:47:30;;;;;;;33.95;16.87;;;;;;;-6.43;85.78;99206.30;1713060;83;25494;-59
2023/03/06 03:49:56;;;;;;;51.42;25.25;;;;;;;-6.44;86.00;99204.69;1712401;83;25612;-60
2023/03/06 03:52:23;;;;;;;50.30;23.10;;;;;;;-6.44;85.82;99206.00;1712661;83;27526;-59
2023/03/06 03:54:49;;;;;;;51.30;23.80;;;;;;;-6.45;85.84;99201.78;1713222;83;25434;-60
2023/03/06 03:57:16;;;;;;;51.25;24.10;;;;;;;-6.47;85.78;99203.84;1710926;83;25544;-60
2023/03/06 03:59:42;;;;;;;53.13;24.63;;;;;;;-6.48;85.77;99198.28;1713153;83;25544;-60
2023/03/06 04:02:08;;;;;;;51.05;23.95;;;;;;;-6.47;85.86;99195.95;1712311;83;25379;-60
2023/03/06 04:04:36;;;;;;;56.45;24.50;;;;;;;-6.51;85.79;99197.41;1712968;83;27902;-60
2023/03/06 04:07:03;;;;;;;49.08;23.98;;;;;;;-6.52;85.91;99200.25;1677829;84;25627;-60
2023/03/06 04:09:30;;;;;;;51.18;25.02;;;;;;;-6.51;85.94;99191.34;1712346;83;25388;-59
2023/03/06 04:11:56;;;;;;;53.15;24.92;;;;;;;-6.53;85.86;99195.52;1679085;83;25491;-58
2023/03/06 04:14:22;;;;;;;52.67;24.43;;;;;;;-6.53;85.94;99193.41;1676948;84;25604;-59
2023/03/06 04:16:48;;;;;;;54.73;23.87;;;;;;;-6.53;85.94;99192.09;1712010;83;27586;-59
2023/03/06 04:19:28;;;;;;;51.15;23.95;;;;;;;-6.55;85.74;99200.20;1677134;84;25799;-59
2023/03/06 04:21:54;;;;;;;50.28;23.70;;;;;;;-6.57;85.96;99193.05;1745564;81;25394;-60
2023/03/06 04:24:21;;;;;;;51.10;23.30;;;;;;;-6.57;85.91;99189.11;1746147;81;25594;-60
2023/03/06 04:26:47;;;;;;;50.88;24.25;;;;;;;-6.57;86.09;99194.38;1742015;82;25435;-59
2023/03/06 04:29:14;;;;;;;52.15;23.42;;;;;;;-6.58;86.16;99184.86;1730128;82;27648;-60
2023/03/06 04:31:41;;;;;;;56.90;24.37;;;;;;;-6.59;86.21;99190.64;1743057;81;25639;-61
2023/03/06 04:34:07;;;;;;;56.60;24.98;;;;;;;-6.60;85.97;99182.97;1744503;82;25608;-59
2023/03/06 04:36:35;;;;;;;58.75;25.17;;;;;;;-6.62;86.06;99179.25;1741265;81;25568;-60
2023/03/06 04:39:03;;;;;;;52.60;24.43;;;;;;;-6.61;86.09;99182.67;1746897;81;25539;-60
2023/03/06 04:41:30;;;;;;;52.83;24.07;;;;;;;-6.62;86.20;99178.45;1744183;81;27498;-60
2023/03/06 04:43:56;;;;;;;54.33;23.00;;;;;;;-6.64;86.00;99179.16;1744296;81;25550;-60
2023/03/06 04:46:22;;;;;;;50.58;22.27;;;;;;;-6.65;85.96;99179.69;1729740;81;25537;-59
2023/03/06 04:48:48;;;;;;;49.73;22.87;;;;;;;-6.66;86.06;99182.54;1745702;82;25565;-60
2023/03/06 04:51:15;;;;;;;49.65;22.60;;;;;;;-6.68;86.05;99182.76;1742400;81;25531;-60
2023/03/06 04:53:41;;;;;;;50.78;23.70;;;;;;;-6.68;86.01;99178.02;1743783;81;29676;-61
2023/03/06 04:56:08;;;;;;;51.55;24.23;;;;;;;-6.68;86.04;99191.97;1742572;81;25196;-60
2023/03/06 04:58:34;;;;;;;60.35;26.10;;;;;;;-6.70;85.85;99177.45;1744336;81;25656;-60
2023/03/06 05:01:02;;;;;;;49.60;24.27;;;;;;;-6.72;85.87;99175.03;1741171;81;27579;-60
2023/03/06 05:03:30;;;;;;;54.13;24.40;;;;;;;-6.73;85.74;99173.42;1741748;81;25372;-59
2023/03/06 05:05:57;;;;;;;50.95;24.00;;;;;;;-6.76;85.86;99179.94;1741892;81;27521;-59
2023/03/06 05:08:23;;;;;;;54.83;24.05;;;;;;;-6.77;85.86;99176.22;1740446;81;25784;-59
2023/03/06 05:11:00;;;;;;;46.88;22.55;;;;;;;-6.79;85.97;99184.33;1745251;81;25563;-59
2023/03/06 05:13:29;;;;;;;49.03;23.80;;;;;;;-6.80;86.00;99176.66;1742108;81;28957;-60
2023/03/06 05:16:05;;;;;;;50.10;24.52;;;;;;;-6.82;85.95;99178.19;1741525;81;25620;-60
2023/03/06 05:18:34;;;;;;;46.85;23.07;;;;;;;-6.82;85.87;99182.66;1740575;81;27445;-59
2023/03/06 05:21:01;;;;;;;37.75;18.42;;;;;;;-6.83;86.05;99179.72;1740758;81;25463;-59
2023/03/06 05:23:30;;;;;;;50.50;24.00;;;;;;;-6.83;86.22;99177.09;1741102;82;25624;-59
2023/03/06 05:25:58;;;;;;;50.70;23.22;;;;;;;-6.83;86.21;99172.63;1741199;81;25549;-59
2023/03/06 05:28:27;;;;;;;51.83;24.40;;;;;;;-6.82;86.19;99170.83;1740041;81;25635;-58
2023/03/06 05:30:53;;;;;;;44.67;23.22;;;;;;;-6.82;86.19;99170.83;1740389;82;28075;-59
2023/03/06 05:33:19;;;;;;;47.73;22.80;;;;;;;-6.82;86.18;99172.14;1738389;82;25443;-59
2023/03/06 05:35:47;;;;;;;47.10;23.35;;;;;;;-6.83;86.04;99176.57;1739608;81;25359;-60
2023/03/06 05:38:18;;;;;;;49.30;23.85;;;;;;;-6.81;86.21;99169.78;1739880;81;25608;-61
2023/03/06 05:40:46;;;;;;;51.53;23.95;;;;;;;-6.79;86.43;99172.49;1739774;82;25431;-58
2023/03/06 05:43:12;;;;;;;50.75;24.02;;;;;;;-6.76;86.58;99173.37;1739755;82;27472;-56
2023/03/06 05:45:40;;;;;;;51.53;24.02;;;;;;;-6.73;86.71;99170.79;1739456;82;25363;-60
2023/03/06 05:48:09;;;;;;;45.70;22.93;;;;;;;-6.68;86.78;99175.39;1739699;82;25395;-59
2023/03/06 05:50:35;;;;;;;50.48;24.75;;;;;;;-6.66;86.95;99170.70;1734018;82;25478;-60
2023/03/06 05:53:03;;;;;;;48.28;22.82;;;;;;;-6.60;86.94;99172.45;1739829;81;25387;-59
2023/03/06 05:55:30;;;;;;;53.35;24.05;;;;;;;-6.55;87.07;99177.84;1740020;82;27567;-59
2023/03/06 05:57:57;;;;;;;50.83;24.20;;;;;;;-6.46;87.21;99175.69;1739670;82;25485;-60
2023/03/06 06:00:24;;;;;;;51.73;23.75;;;;;;;-6.39;87.43;99173.23;1739936;81;25382;-59
2023/03/06 06:02:51;;;;;;;56.23;24.40;;;;;;;-6.31;87.60;99176.59;1739569;82;25574;-58
2023/03/06 06:05:18;;;;;;;51.90;24.10;;;;;;;-6.23;87.68;99182.83;1739575;82;25543;-60
2023/03/06 06:07:44;;;;;;;51.35;24.25;;;;;;;-6.16;87.68;99183.55;1739937;82;25907;-58
2023/03/06 06:10:11;;;;;;;54.93;25.30;;;;;;;-6.08;87.83;99190.30;1740159;82;25670;-58
2023/03/06 06:12:38;;;;;;;53.48;25.77;;;;;;;-6.02;87.95;99188.88;1740106;82;25441;-60
2023/03/06 06:15:07;;;;;;;55.03;25.85;;;;;;;-5.95;88.03;99186.64;1740364;81;25631;-61
2023/03/06 06:17:33;;;;;;;57.48;25.50;;;;;;;-5.88;88.05;99189.44;1740342;82;25564;-61
2023/03/06 06:19:59;;;;;;;63.05;28.25;;;;;;;-5.79;88.16;99188.58;1740171;82;27518;-60
2023/03/06 06:22:26;;;;;;;55.83;26.60;;;;;;;-5.68;88.30;99190.95;1729131;81;25599;-59
2023/03/06 06:24:52;;;;;;;51.53;24.67;;;;;;;-5.54;88.40;99192.83;1741451;82;25621;-56
2023/03/06 06:27:19;;;;;;;51.58;25.05;;;;;;;-5.43;88.44;99185.44;1741022;82;25582;-60
2023/03/06 06:29:45;;;;;;;59.25;28.12;;;;;;;-5.31;88.55;99191.98;1739454;82;25434;-58
2023/03/06 06:32:11;;;;;;;52.78;25.08;;;;;;;-5.18;88.46;99197.55;1675574;84;27580;-60
2023/03/06 06:34:37;;;;;;;54.90;25.08;;;;;;;-5.06;88.47;99194.36;1724894;82;25820;-60
2023/03/06 06:37:04;;;;;;;58.35;26.45;;;;;;;-4.91;88.39;99197.30;1735914;82;25588;-57
2023/03/06 06:39:30;;;;;;;53.50;26.82;;;;;;;-4.74;88.62;99191.30;1725137;82;25606;-59
2023/03/06 06:41:57;;;;;;;56.95;26.70;;;;;;;-4.55;88.57;99196.65;1736250;82;25463;-58
2023/03/06 06:44:23;;;;;;;48.15;25.43;;;;;;;-4.36;88.84;99199.91;1740192;81;27542;-57
2023/03/06 06:46:49;;;;;;;54.53;26.00;;;;;;;-4.09;89.20;99194.53;1735919;82;25607;-58
2023/03/06 06:49:16;;;;;;;47.43;25.02;;;;;;;-3.86;89.08;99189.09;1736064;82;25391;-58
2023/03/06 06:51:42;;;;;;;57.78;27.25;;;;;;;-3.55;89.47;99199.33;1738266;82;26114;-58
2023/03/06 06:54:11;;;;;;;54.80;27.40;;;;;;;-3.26;89.20;99193.37;1739243;82;25431;-59
2023/03/06 06:56:38;;;;;;;58.30;27.52;;;;;;;-3.05;88.77;99193.92;1738066;82;27480;-58
2023/03/06 06:59:05;;;;;;;55.80;27.07;;;;;;;-2.79;89.14;99188.92;1736977;82;27306;-58
2023/03/06 07:01:31;;;;;;;57.43;27.05;;;;;;;-2.41;90.50;99186.41;1734506;82;25695;-58
2023/03/06 07:03:57;;;;;;;57.50;27.77;;;;;;;-2.07;90.06;99189.08;1733586;82;25795;-58
2023/03/06 07:06:24;;;;;;;56.88;30.45;;;;;;;-1.68;91.28;99186.73;1739259;82;25622;-59
2023/03/06 07:08:50;;;;;;;56.37;26.95;;;;;;;-1.35;90.60;99184.80;1733602;82;27466;-59
2023/03/06 07:11:18;;;;;;;52.30;27.75;;;;;;;-0.90;91.33;99182.61;1723751;82;25784;-60
2023/03/06 07:13:46;;;;;;;45.25;24.90;;;;;;;-0.51;90.11;99185.66;1738250;82;25681;-60
2023/03/06 07:16:13;;;;;;;44.67;23.22;;;;;;;-0.19;88.88;99187.28;1735781;82;25580;-60
2023/03/06 07:18:40;;;;;;;46.63;24.43;;;;;;;0.04;86.32;99181.98;1737623;82;25165;-59
2023/03/06 07:21:07;;;;;;;44.83;23.92;;;;;;;0.23;86.29;99184.11;1737064;82;27511;-59
2023/03/06 07:23:34;;;;;;;47.17;24.43;;;;;;;0.56;85.43;99181.38;1738703;82;25804;-59
2023/03/06 07:26:00;;;;;;;43.55;22.98;;;;;;;0.68;83.53;99177.91;1740099;82;25592;-60
2023/03/06 07:28:27;;;;;;;46.73;24.45;;;;;;;0.73;81.70;99179.75;1743412;81;25635;-60
2023/03/06 07:30:53;;;;;;;39.73;23.22;;;;;;;0.91;81.60;99177.04;1729876;82;25634;-60
2023/03/06 07:33:20;;;;;;;41.15;21.77;;;;;;;1.09;82.72;99169.78;1738674;82;27558;-60
2023/03/06 07:35:46;;;;;;;38.42;21.87;;;;;;;1.39;82.41;99173.34;1739656;81;25648;-61
2023/03/06 07:38:13;;;;;;;42.60;22.95;;;;;;;1.66;80.14;99166.24;1744107;82;25628;-61
2023/03/06 07:40:40;;;;;;;36.70;21.27;;;;;;;1.91;80.83;99169.00;1724742;82;25602;-61
2023/03/06 07:43:06;;;;;;;37.05;22.25;;;;;;;2.30;80.57;99168.95;1738617;81;25541;-61
2023/03/06 07:45:33;;;;;;;36.35;19.87;;;;;;;2.73;81.07;99162.36;1740163;82;27493;-62
2023/03/06 07:48:00;;;;;;;33.60;17.25;;;;;;;3.53;81.59;99169.38;1738802;82;25528;-62
2023/03/06 07:50:27;;;;;;;32.48;15.93;;;;;;;4.46;78.54;99168.16;1743768;82;25443;-62
2023/03/06 07:52:53;;;;;;;28.20;15.83;;;;;;;5.34;77.09;99170.46;1741516;81;25619;-62
2023/03/06 07:55:20;;;;;;;38.50;25.90;;;;;;;5.92;71.94;99169.66;1738877;82;25409;-64
2023/03/06 07:57:51;;;;;;;95.87;87.57;;;;;;;6.35;71.14;99170.53;1744068;81;27476;-63
2023/03/06 08:00:19;;;;;;;98.22;88.97;;;;;;;7.22;71.95;99178.66;1743863;81;25629;-63
2023/03/06 08:02:45;;;;;;;97.17;88.25;;;;;;;7.48;67.19;99180.84;1730057;82;25484;-63
2023/03/06 08:05:15;;;;;;;42.55;33.02;;;;;;;7.53;65.19;99177.78;1738631;82;25873;-63
2023/03/06 08:07:43;;;;;;;95.57;87.53;;;;;;;7.64;63.47;99183.07;1739881;82;25473;-64
2023/03/06 08:10:14;;;;;;;95.65;86.87;;;;;;;7.72;61.03;99175.56;1742569;82;27522;-64
2023/03/06 08:12:40;;;;;;;94.77;86.42;;;;;;;7.84;58.86;99177.62;1743976;82;25807;-64
2023/03/06 08:15:09;;;;;;;96.35;88.15;;;;;;;7.70;61.05;99178.34;1739801;81;25615;-64
2023/03/06 08:17:36;;;;;;;93.25;85.38;;;;;;;7.30;61.13;99177.89;1738554;82;25551;-65
2023/03/06 08:20:03;;;;;;;93.27;85.32;;;;;;;7.00;61.20;99176.86;1739748;81;25628;-65
2023/03/06 08:22:29;;;;;;;93.17;85.85;;;;;;;6.39;61.28;99178.77;1741417;81;27569;-65
2023/03/06 08:24:56;;;;;;;33.75;19.15;;;;;;;6.12;61.21;99175.69;1739267;82;25545;-65
2023/03/06 08:27:23;;;;;;;31.52;16.12;;;;;;;5.72;60.48;99184.91;1740896;82;25405;-65
2023/03/06 08:29:49;;;;;;;33.13;16.20;;;;;;;5.35;60.86;99184.91;1740745;82;25622;-65
2023/03/06 08:32:15;;;;;;;35.90;20.32;;;;;;;5.03;61.76;99189.30;1738373;82;25630;-65
2023/03/06 08:34:44;;;;;;;36.40;17.15;;;;;;;4.95;62.47;99188.66;1736756;82;27474;-65
2023/03/06 08:37:10;;;;;;;30.20;16.45;;;;;;;4.92;62.73;99185.27;1738880;81;25599;-66
2023/03/06 08:39:36;;;;;;;60.05;54.25;;;;;;;4.62;60.77;99190.64;1738583;81;25641;-67
2023/03/06 08:42:03;;;;;;;34.50;16.80;;;;;;;4.39;62.50;99186.50;1736890;82;27733;-65
2023/03/06 08:44:29;;;;;;;38.85;21.10;;;;;;;4.10;61.88;99180.01;1739103;82;25642;-66
2023/03/06 08:46:55;;;;;;;36.88;25.32;;;;;;;3.74;60.45;99180.02;1739890;82;27518;-65
2023/03/06 08:49:22;;;;;;;33.90;17.20;;;;;;;3.43;62.73;99182.89;1739440;82;25601;-67
2023/03/06 08:51:48;;;;;;;32.05;15.78;;;;;;;3.24;63.67;99176.20;1739584;82;25563;-67
2023/03/06 08:54:15;;;;;;;30.30;15.85;;;;;;;3.19;63.43;99177.05;1741808;82;26101;-67
2023/03/06 08:56:41;;;;;;;33.75;16.07;;;;;;;3.06;64.61;99176.41;1741461;82;25413;-67
2023/03/06 08:59:09;;;;;;;31.55;15.98;;;;;;;2.97;64.04;99178.37;1738617;82;27765;-68
2023/03/06 09:01:37;;;;;;;34.03;16.65;;;;;;;2.82;64.10;99179.11;1733330;82;25753;-68
2023/03/06 09:04:08;;;;;;;38.98;21.27;;;;;;;2.73;64.84;99178.94;1741871;81;25553;-68
2023/03/06 09:06:40;;;;;;;28.15;14.18;;;;;;;2.70;65.37;99172.83;1741859;81;25546;-68
2023/03/06 09:09:07;;;;;;;21.70;11.12;;;;;;;2.77;64.51;99172.72;1740903;82;25422;-67
2023/03/06 09:11:34;;;;;;;22.90;12.05;;;;;;;2.93;64.94;99170.69;1737741;81;27508;-68
2023/03/06 09:14:01;;;;;;;30.15;13.03;;;;;;;3.14;65.33;99163.76;1740221;81;25530;-69
2023/03/06 09:16:28;;;;;;;23.80;11.20;;;;;;;3.36;64.92;99162.66;1737437;82;25517;-68
2023/03/06 09:18:56;;;;;;;25.80;11.43;;;;;;;3.38;63.89;99166.38;1738852;82;25502;-69
2023/03/06 09:21:25;;;;;;;27.58;11.25;;;;;;;3.48;64.25;99168.13;1740266;81;25489;-68
2023/03/06 09:23:51;;;;;;;25.65;10.58;;;;;;;3.71;65.68;99163.23;1740479;81;27478;-68
2023/03/06 09:26:18;;;;;;;18.15;9.65;;;;;;;4.05;63.29;99164.84;1740940;81;25766;-68
2023/03/06 09:28:45;;;;;;;62.55;57.17;;;;;;;4.10;64.42;99159.41;1739915;82;25648;-69
2023/03/06 09:31:17;;;;;;;16.87;8.48;;;;;;;4.23;61.62;99166.42;1730645;82;25867;-70
2023/03/06 09:33:45;;;;;;;22.22;17.30;;;;;;;4.16;61.75;99160.11;1739698;82;25459;-71
2023/03/06 09:36:19;;;;;;;18.05;9.08;;;;;;;4.23;62.43;99156.50;1743641;82;27449;-69
2023/03/06 09:38:48;;;;;;;15.55;9.00;;;;;;;4.28;62.22;99163.66;1740062;82;25403;-68
2023/03/06 09:41:23;;;;;;;22.15;10.65;;;;;;;4.20;61.51;99158.98;1738367;81;25552;-66
2023/03/06 09:44:00;;;;;;;23.52;10.80;;;;;;;4.12;60.92;99163.14;1734247;82;25546;-66
2023/03/06 09:46:50;;;;;;;22.35;11.20;;;;;;;3.92;60.97;99158.35;1730357;82;25426;-66
2023/03/06 09:49:22;;;;;;;23.27;11.00;;;;;;;3.86;60.86;99158.17;1718101;81;29706;-66
2023/03/06 09:52:34;;;;;;;24.15;11.90;;;;;;;3.93;62.94;99145.23;1743178;81;25758;-66
2023/03/06 09:55:21;;;;;;;20.65;11.18;;;;;;;4.04;62.63;99143.73;1737049;81;25565;-65
2023/03/06 09:58:05;;;;;;;22.48;11.35;;;;;;;3.86;61.72;99144.01;1728991;82;25531;-64
2023/03/06 10:00:42;;;;;;;28.38;12.88;;;;;;;3.65;60.79;99142.99;1741291;82;25563;-66
2023/03/06 10:03:35;;;;;;;20.97;11.00;;;;;;;3.54;61.53;99136.20;1740171;81;28045;-66
2023/03/06 10:06:30;;;;;;;23.38;11.78;;;;;;;3.41;61.91;99138.28;1742565;81;25536;-65
2023/03/06 10:09:37;;;;;;;26.87;12.18;;;;;;;3.38;62.00;99135.64;1678838;84;25644;-65
2023/03/06 10:12:24;;;;;;;25.37;16.35;;;;;;;3.24;61.90;99140.13;1677878;85;25679;-65
2023/03/06 10:15:22;;;;;;;22.15;13.08;;;;;;;3.03;61.90;99128.89;1678789;84;25574;-65
2023/03/06 10:17:50;;;;;;;27.00;20.92;;;;;;;2.92;62.27;99122.89;1678068;85;27589;-64
2023/03/06 10:20:40;;;;;;;43.28;39.53;;;;;;;2.90;63.68;99121.05;1678670;84;25491;-64
2023/03/06 10:23:43;;;;;;;48.63;44.70;;;;;;;2.93;63.38;99117.81;1688626;84;25719;-64
2023/03/06 10:26:18;;;;;;;17.07;13.22;;;;;;;2.87;62.94;99113.06;1684891;84;25679;-65
2023/03/06 10:29:13;;;;;;;14.07;7.70;;;;;;;2.89;62.56;99118.11;1684263;85;25720;-65
2023/03/06 10:31:48;;;;;;;17.17;13.05;;;;;;;2.78;61.86;99114.23;1685720;85;27574;-65
2023/03/06 10:34:32;;;;;;;20.30;7.65;;;;;;;2.58;62.19;99111.26;1682306;85;25548;-65
2023/03/06 10:37:04;;;;;;;17.73;8.05;;;;;;;2.43;62.54;99110.09;1664669;86;25669;-65
2023/03/06 10:39:30;;;;;;;18.27;8.73;;;;;;;2.28;63.52;99120.38;1681735;84;26451;-65
2023/03/06 10:41:57;;;;;;;17.23;8.73;;;;;;;2.18;63.54;99114.63;1682759;82;25576;-66
2023/03/06 10:44:25;;;;;;;18.35;8.43;;;;;;;2.05;63.89;99128.62;1740866;82;27502;-66
2023/03/06 10:46:53;;;;;;;14.20;8.13;;;;;;;1.87;64.97;99114.09;1741316;82;25521;-66
2023/03/06 10:49:30;;;;;;;18.73;8.75;;;;;;;1.67;65.38;99114.53;1738972;82;25394;-68
2023/03/06 10:52:05;;;;;;;17.52;9.05;;;;;;;1.60;66.52;99115.39;1737227;82;25485;-69
2023/03/06 10:54:41;;;;;;;14.03;8.23;;;;;;;1.55;67.05;99107.95;1738279;82;25535;-69
2023/03/06 10:57:21;;;;;;;15.75;7.95;;;;;;;1.58;67.44;99112.19;1741537;81;27550;-69
2023/03/06 11:00:03;;;;;;;15.13;7.95;;;;;;;1.48;66.99;99101.09;1741562;82;27311;-69
2023/03/06 11:02:39;;;;;;;16.07;6.55;;;;;;;1.42;66.77;99105.39;1741461;82;25521;-69
2023/03/06 11:05:18;;;;;;;12.70;7.60;;;;;;;1.38;67.08;99103.00;1741609;82;25489;-68
2023/03/06 11:08:00;;;;;;;16.07;8.05;;;;;;;1.36;67.61;99101.16;1737233;81;25578;-68
2023/03/06 11:10:30;;;;;;;13.55;7.45;;;;;;;1.37;68.18;99094.77;1739547;82;27715;-68
2023/03/06 11:13:06;;;;;;;13.25;7.45;;;;;;;1.38;68.29;99098.49;1720675;82;27424;-68
2023/03/06 11:15:33;;;;;;;11.68;6.42;;;;;;;1.33;68.59;99095.86;1734181;82;25463;-69
2023/03/06 11:18:09;;;;;;;15.85;6.83;;;;;;;1.17;68.33;99091.15;1712768;82;25756;-68
2023/03/06 11:20:49;;;;;;;17.57;7.83;;;;;;;1.08;68.90;99085.61;1730180;82;25612;-68
2023/03/06 11:23:46;;;;;;;10.93;5.67;;;;;;;1.09;69.39;99079.22;1735231;82;27550;-68
2023/03/06 11:26:21;;;;;;;17.52;8.30;;;;;;;1.16;69.75;99070.93;1736158;82;27336;-69
2023/03/06 11:29:11;;;;;;;30.50;15.80;;;;;;;1.04;69.87;99065.94;1733025;82;25545;-68
2023/03/06 11:32:04;;;;;;;23.70;13.85;;;;;;;1.03;71.02;99068.33;1736254;82;26085;-65
2023/03/06 11:34:48;;;;;;;18.10;7.40;;;;;;;0.95;70.93;99060.12;1736233;82;25428;-65